<?xml version="1.0" encoding="utf-8"?>
<gpx xmlns:xsi="http://www.w3.org/2001/XMLSchema-instance" xmlns:xsd="http://www.w3.org/2001/XMLSchema" version="1.1" creator="Shapelink.com" xmlns="http://www.topografix.com/GPX/1/1" xmlns:gpxtpx="http://www.garmin.com/xmlschemas/TrackPointExtension/v1">
  <metadata>
    <name>Gåing 3.47 km, 2012-07-18</name>
    <desc></desc>
    <author><name>Mikael Blom</name></author> 
    <time>2012-07-18T13:23:27Z</time>
  </metadata>
  <trk>
    <name>Gåing 3.47 km, 2012-07-18</name>
    <trkseg>
      <trkpt lat="59.9773903" lon="17.739399">
        <ele>2.06006</ele>
        <time>2012-07-18T13:23:27Z</time>
      </trkpt>
      <trkpt lat="59.9772598" lon="17.739445">
        <ele>4.46326</ele>
        <time>2012-07-18T13:23:34Z</time>
      </trkpt>
      <trkpt lat="59.9771959" lon="17.7394759">
        <ele>0</ele>
        <time>2012-07-18T13:23:40Z</time>
      </trkpt>
      <trkpt lat="59.9771008" lon="17.739523">
        <ele>0</ele>
        <time>2012-07-18T13:23:47Z</time>
      </trkpt>
      <trkpt lat="59.9770563" lon="17.7395444">
        <ele>0</ele>
        <time>2012-07-18T13:23:50Z</time>
      </trkpt>
      <trkpt lat="59.9769785" lon="17.7395703">
        <ele>0</ele>
        <time>2012-07-18T13:23:56Z</time>
      </trkpt>
      <trkpt lat="59.9768815" lon="17.739604">
        <ele>0</ele>
        <time>2012-07-18T13:24:01Z</time>
      </trkpt>
      <trkpt lat="59.9767682" lon="17.7396889">
        <ele>0</ele>
        <time>2012-07-18T13:24:09Z</time>
      </trkpt>
      <trkpt lat="59.9766742" lon="17.7397942">
        <ele>0.618042</ele>
        <time>2012-07-18T13:24:16Z</time>
      </trkpt>
      <trkpt lat="59.9766145" lon="17.7398809">
        <ele>1.09863</ele>
        <time>2012-07-18T13:24:22Z</time>
      </trkpt>
      <trkpt lat="59.9765237" lon="17.7399402">
        <ele>1.57935</ele>
        <time>2012-07-18T13:24:28Z</time>
      </trkpt>
      <trkpt lat="59.9764598" lon="17.7399712">
        <ele>1.57935</ele>
        <time>2012-07-18T13:24:32Z</time>
      </trkpt>
      <trkpt lat="59.9763745" lon="17.7398678">
        <ele>1.09863</ele>
        <time>2012-07-18T13:24:38Z</time>
      </trkpt>
      <trkpt lat="59.9762569" lon="17.7396556">
        <ele>1.57935</ele>
        <time>2012-07-18T13:24:46Z</time>
      </trkpt>
      <trkpt lat="59.9761844" lon="17.7395582">
        <ele>0.618042</ele>
        <time>2012-07-18T13:24:52Z</time>
      </trkpt>
      <trkpt lat="59.9760926" lon="17.7394026">
        <ele>1.57935</ele>
        <time>2012-07-18T13:24:59Z</time>
      </trkpt>
      <trkpt lat="59.9758208" lon="17.739176">
        <ele>21.2864</ele>
        <time>2012-07-18T13:25:06Z</time>
      </trkpt>
      <trkpt lat="59.9756611" lon="17.7389658">
        <ele>28.0155</ele>
        <time>2012-07-18T13:25:14Z</time>
      </trkpt>
      <trkpt lat="59.9755343" lon="17.7387803">
        <ele>32.8223</ele>
        <time>2012-07-18T13:25:21Z</time>
      </trkpt>
      <trkpt lat="59.9754038" lon="17.7386031">
        <ele>36.6675</ele>
        <time>2012-07-18T13:25:28Z</time>
      </trkpt>
      <trkpt lat="59.9752779" lon="17.7384556">
        <ele>41.474</ele>
        <time>2012-07-18T13:25:34Z</time>
      </trkpt>
      <trkpt lat="59.975152" lon="17.7382463">
        <ele>44.358</ele>
        <time>2012-07-18T13:25:43Z</time>
      </trkpt>
      <trkpt lat="59.9750589" lon="17.7380904">
        <ele>46.7612</ele>
        <time>2012-07-18T13:25:49Z</time>
      </trkpt>
      <trkpt lat="59.9750412" lon="17.7380551">
        <ele>46.2806</ele>
        <time>2012-07-18T13:25:51Z</time>
      </trkpt>
      <trkpt lat="59.9749961" lon="17.7380018">
        <ele>45.7999</ele>
        <time>2012-07-18T13:25:55Z</time>
      </trkpt>
      <trkpt lat="59.9749579" lon="17.7378851">
        <ele>43.3966</ele>
        <time>2012-07-18T13:26:02Z</time>
      </trkpt>
      <trkpt lat="59.9749159" lon="17.7377695">
        <ele>41.474</ele>
        <time>2012-07-18T13:26:08Z</time>
      </trkpt>
      <trkpt lat="59.9748568" lon="17.7376723">
        <ele>41.474</ele>
        <time>2012-07-18T13:26:13Z</time>
      </trkpt>
      <trkpt lat="59.974754" lon="17.7375082">
        <ele>41.9547</ele>
        <time>2012-07-18T13:26:21Z</time>
      </trkpt>
      <trkpt lat="59.9746525" lon="17.7372956">
        <ele>40.5128</ele>
        <time>2012-07-18T13:26:32Z</time>
      </trkpt>
      <trkpt lat="59.9745816" lon="17.7371524">
        <ele>40.9934</ele>
        <time>2012-07-18T13:26:39Z</time>
      </trkpt>
      <trkpt lat="59.9745058" lon="17.7369492">
        <ele>40.0321</ele>
        <time>2012-07-18T13:26:48Z</time>
      </trkpt>
      <trkpt lat="59.9744548" lon="17.736748">
        <ele>37.1481</ele>
        <time>2012-07-18T13:26:57Z</time>
      </trkpt>
      <trkpt lat="59.974375" lon="17.7364902">
        <ele>36.1868</ele>
        <time>2012-07-18T13:27:08Z</time>
      </trkpt>
      <trkpt lat="59.9743026" lon="17.7362337">
        <ele>36.6675</ele>
        <time>2012-07-18T13:27:18Z</time>
      </trkpt>
      <trkpt lat="59.9742199" lon="17.7359251">
        <ele>38.1094</ele>
        <time>2012-07-18T13:27:30Z</time>
      </trkpt>
      <trkpt lat="59.9741495" lon="17.7356626">
        <ele>40.9934</ele>
        <time>2012-07-18T13:27:39Z</time>
      </trkpt>
      <trkpt lat="59.9740994" lon="17.7354791">
        <ele>42.916</ele>
        <time>2012-07-18T13:27:45Z</time>
      </trkpt>
      <trkpt lat="59.9740477" lon="17.7352298">
        <ele>45.3192</ele>
        <time>2012-07-18T13:27:53Z</time>
      </trkpt>
      <trkpt lat="59.9740512" lon="17.7350325">
        <ele>43.8773</ele>
        <time>2012-07-18T13:28:00Z</time>
      </trkpt>
      <trkpt lat="59.9740518" lon="17.7348524">
        <ele>41.9547</ele>
        <time>2012-07-18T13:28:06Z</time>
      </trkpt>
      <trkpt lat="59.9740752" lon="17.734698">
        <ele>40.0321</ele>
        <time>2012-07-18T13:28:12Z</time>
      </trkpt>
      <trkpt lat="59.9741104" lon="17.7345113">
        <ele>35.7061</ele>
        <time>2012-07-18T13:28:20Z</time>
      </trkpt>
      <trkpt lat="59.9741319" lon="17.7343145">
        <ele>33.7834</ele>
        <time>2012-07-18T13:28:28Z</time>
      </trkpt>
      <trkpt lat="59.9742641" lon="17.734159">
        <ele>21.2864</ele>
        <time>2012-07-18T13:28:37Z</time>
      </trkpt>
      <trkpt lat="59.9742976" lon="17.7339064">
        <ele>17.9218</ele>
        <time>2012-07-18T13:28:46Z</time>
      </trkpt>
      <trkpt lat="59.9743102" lon="17.7336785">
        <ele>15.5184</ele>
        <time>2012-07-18T13:28:54Z</time>
      </trkpt>
      <trkpt lat="59.9743184" lon="17.7336255">
        <ele>15.0377</ele>
        <time>2012-07-18T13:28:56Z</time>
      </trkpt>
      <trkpt lat="59.9743328" lon="17.7333682">
        <ele>13.5958</ele>
        <time>2012-07-18T13:29:04Z</time>
      </trkpt>
      <trkpt lat="59.9743366" lon="17.733312">
        <ele>14.0764</ele>
        <time>2012-07-18T13:29:06Z</time>
      </trkpt>
      <trkpt lat="59.9743482" lon="17.7331081">
        <ele>14.0764</ele>
        <time>2012-07-18T13:29:13Z</time>
      </trkpt>
      <trkpt lat="59.9743368" lon="17.732873">
        <ele>15.5184</ele>
        <time>2012-07-18T13:29:20Z</time>
      </trkpt>
      <trkpt lat="59.974333" lon="17.7326798">
        <ele>16.4797</ele>
        <time>2012-07-18T13:29:26Z</time>
      </trkpt>
      <trkpt lat="59.9743231" lon="17.7324627">
        <ele>17.9218</ele>
        <time>2012-07-18T13:29:33Z</time>
      </trkpt>
      <trkpt lat="59.9743175" lon="17.732232">
        <ele>18.4023</ele>
        <time>2012-07-18T13:29:41Z</time>
      </trkpt>
      <trkpt lat="59.9743087" lon="17.7319666">
        <ele>18.4023</ele>
        <time>2012-07-18T13:29:50Z</time>
      </trkpt>
      <trkpt lat="59.9743121" lon="17.731735">
        <ele>18.8831</ele>
        <time>2012-07-18T13:29:58Z</time>
      </trkpt>
      <trkpt lat="59.9743059" lon="17.7314524">
        <ele>19.8444</ele>
        <time>2012-07-18T13:30:07Z</time>
      </trkpt>
      <trkpt lat="59.9743134" lon="17.7312132">
        <ele>20.325</ele>
        <time>2012-07-18T13:30:15Z</time>
      </trkpt>
      <trkpt lat="59.9743295" lon="17.7310464">
        <ele>19.8444</ele>
        <time>2012-07-18T13:30:21Z</time>
      </trkpt>
      <trkpt lat="59.9743315" lon="17.7308297">
        <ele>20.8057</ele>
        <time>2012-07-18T13:30:28Z</time>
      </trkpt>
      <trkpt lat="59.9743655" lon="17.7306203">
        <ele>20.325</ele>
        <time>2012-07-18T13:30:36Z</time>
      </trkpt>
      <trkpt lat="59.9743754" lon="17.7304369">
        <ele>21.2864</ele>
        <time>2012-07-18T13:30:43Z</time>
      </trkpt>
      <trkpt lat="59.9743782" lon="17.7303794">
        <ele>21.2864</ele>
        <time>2012-07-18T13:30:45Z</time>
      </trkpt>
      <trkpt lat="59.9743932" lon="17.7302744">
        <ele>20.8057</ele>
        <time>2012-07-18T13:30:49Z</time>
      </trkpt>
      <trkpt lat="59.9744134" lon="17.7300001">
        <ele>21.2864</ele>
        <time>2012-07-18T13:30:59Z</time>
      </trkpt>
      <trkpt lat="59.9744314" lon="17.7298452">
        <ele>22.2476</ele>
        <time>2012-07-18T13:31:05Z</time>
      </trkpt>
      <trkpt lat="59.974434" lon="17.7297287">
        <ele>21.2864</ele>
        <time>2012-07-18T13:31:10Z</time>
      </trkpt>
      <trkpt lat="59.974437" lon="17.7295655">
        <ele>20.325</ele>
        <time>2012-07-18T13:31:16Z</time>
      </trkpt>
      <trkpt lat="59.9744478" lon="17.7294775">
        <ele>18.8831</ele>
        <time>2012-07-18T13:31:20Z</time>
      </trkpt>
      <trkpt lat="59.9744518" lon="17.7293941">
        <ele>18.8831</ele>
        <time>2012-07-18T13:31:23Z</time>
      </trkpt>
      <trkpt lat="59.9744354" lon="17.729235">
        <ele>18.8831</ele>
        <time>2012-07-18T13:31:29Z</time>
      </trkpt>
      <trkpt lat="59.9744241" lon="17.7290063">
        <ele>20.325</ele>
        <time>2012-07-18T13:31:37Z</time>
      </trkpt>
      <trkpt lat="59.9744155" lon="17.7289413">
        <ele>20.8057</ele>
        <time>2012-07-18T13:31:39Z</time>
      </trkpt>
      <trkpt lat="59.9744036" lon="17.7287144">
        <ele>20.325</ele>
        <time>2012-07-18T13:31:46Z</time>
      </trkpt>
      <trkpt lat="59.9743878" lon="17.7284958">
        <ele>19.3638</ele>
        <time>2012-07-18T13:31:53Z</time>
      </trkpt>
      <trkpt lat="59.9743833" lon="17.7283459">
        <ele>18.4023</ele>
        <time>2012-07-18T13:31:58Z</time>
      </trkpt>
      <trkpt lat="59.9743707" lon="17.7280891">
        <ele>19.8444</ele>
        <time>2012-07-18T13:32:06Z</time>
      </trkpt>
      <trkpt lat="59.9743573" lon="17.7279378">
        <ele>20.8057</ele>
        <time>2012-07-18T13:32:11Z</time>
      </trkpt>
      <trkpt lat="59.974353" lon="17.7277618">
        <ele>21.2864</ele>
        <time>2012-07-18T13:32:18Z</time>
      </trkpt>
      <trkpt lat="59.9743553" lon="17.7277327">
        <ele>21.2864</ele>
        <time>2012-07-18T13:32:19Z</time>
      </trkpt>
      <trkpt lat="59.9743618" lon="17.7276264">
        <ele>20.325</ele>
        <time>2012-07-18T13:32:23Z</time>
      </trkpt>
      <trkpt lat="59.9743507" lon="17.7274243">
        <ele>20.8057</ele>
        <time>2012-07-18T13:32:30Z</time>
      </trkpt>
      <trkpt lat="59.974344" lon="17.7273681">
        <ele>20.8057</ele>
        <time>2012-07-18T13:32:32Z</time>
      </trkpt>
      <trkpt lat="59.9743522" lon="17.727194">
        <ele>21.2864</ele>
        <time>2012-07-18T13:32:39Z</time>
      </trkpt>
      <trkpt lat="59.9743249" lon="17.7269645">
        <ele>22.7283</ele>
        <time>2012-07-18T13:32:46Z</time>
      </trkpt>
      <trkpt lat="59.9743226" lon="17.7267884">
        <ele>23.6896</ele>
        <time>2012-07-18T13:32:52Z</time>
      </trkpt>
      <trkpt lat="59.9743397" lon="17.7266495">
        <ele>24.1703</ele>
        <time>2012-07-18T13:32:58Z</time>
      </trkpt>
      <trkpt lat="59.9743429" lon="17.7265997">
        <ele>24.651</ele>
        <time>2012-07-18T13:33:00Z</time>
      </trkpt>
      <trkpt lat="59.9743382" lon="17.7265142">
        <ele>23.6896</ele>
        <time>2012-07-18T13:33:03Z</time>
      </trkpt>
      <trkpt lat="59.9743199" lon="17.7263653">
        <ele>23.209</ele>
        <time>2012-07-18T13:33:08Z</time>
      </trkpt>
      <trkpt lat="59.9743222" lon="17.7262424">
        <ele>22.2476</ele>
        <time>2012-07-18T13:33:13Z</time>
      </trkpt>
      <trkpt lat="59.9743174" lon="17.726049">
        <ele>21.767</ele>
        <time>2012-07-18T13:33:20Z</time>
      </trkpt>
      <trkpt lat="59.9742968" lon="17.7258933">
        <ele>21.767</ele>
        <time>2012-07-18T13:33:25Z</time>
      </trkpt>
      <trkpt lat="59.9742872" lon="17.7258275">
        <ele>22.2476</ele>
        <time>2012-07-18T13:33:27Z</time>
      </trkpt>
      <trkpt lat="59.9743051" lon="17.7256934">
        <ele>22.7283</ele>
        <time>2012-07-18T13:33:32Z</time>
      </trkpt>
      <trkpt lat="59.9743159" lon="17.7256447">
        <ele>22.7283</ele>
        <time>2012-07-18T13:33:34Z</time>
      </trkpt>
      <trkpt lat="59.9742745" lon="17.7254777">
        <ele>23.209</ele>
        <time>2012-07-18T13:33:39Z</time>
      </trkpt>
      <trkpt lat="59.9742593" lon="17.7253466">
        <ele>23.209</ele>
        <time>2012-07-18T13:33:44Z</time>
      </trkpt>
      <trkpt lat="59.9742365" lon="17.7251884">
        <ele>22.7283</ele>
        <time>2012-07-18T13:33:50Z</time>
      </trkpt>
      <trkpt lat="59.9742078" lon="17.7250494">
        <ele>22.7283</ele>
        <time>2012-07-18T13:33:55Z</time>
      </trkpt>
      <trkpt lat="59.9741989" lon="17.7249527">
        <ele>22.7283</ele>
        <time>2012-07-18T13:33:59Z</time>
      </trkpt>
      <trkpt lat="59.9741529" lon="17.7247776">
        <ele>22.2476</ele>
        <time>2012-07-18T13:34:05Z</time>
      </trkpt>
      <trkpt lat="59.9741106" lon="17.7245986">
        <ele>22.2476</ele>
        <time>2012-07-18T13:34:11Z</time>
      </trkpt>
      <trkpt lat="59.9740822" lon="17.7244478">
        <ele>20.8057</ele>
        <time>2012-07-18T13:34:16Z</time>
      </trkpt>
      <trkpt lat="59.9740672" lon="17.7243562">
        <ele>21.2864</ele>
        <time>2012-07-18T13:34:19Z</time>
      </trkpt>
      <trkpt lat="59.9740301" lon="17.7241343">
        <ele>21.767</ele>
        <time>2012-07-18T13:34:27Z</time>
      </trkpt>
      <trkpt lat="59.9740063" lon="17.7239915">
        <ele>20.8057</ele>
        <time>2012-07-18T13:34:32Z</time>
      </trkpt>
      <trkpt lat="59.9739863" lon="17.7238465">
        <ele>20.8057</ele>
        <time>2012-07-18T13:34:38Z</time>
      </trkpt>
      <trkpt lat="59.9739625" lon="17.7237006">
        <ele>21.767</ele>
        <time>2012-07-18T13:34:43Z</time>
      </trkpt>
      <trkpt lat="59.9739326" lon="17.7235289">
        <ele>21.767</ele>
        <time>2012-07-18T13:34:49Z</time>
      </trkpt>
      <trkpt lat="59.9739298" lon="17.7234116">
        <ele>22.7283</ele>
        <time>2012-07-18T13:34:54Z</time>
      </trkpt>
      <trkpt lat="59.9739146" lon="17.7232904">
        <ele>23.6896</ele>
        <time>2012-07-18T13:34:59Z</time>
      </trkpt>
      <trkpt lat="59.9738877" lon="17.7231234">
        <ele>24.651</ele>
        <time>2012-07-18T13:35:05Z</time>
      </trkpt>
      <trkpt lat="59.9738165" lon="17.7228815">
        <ele>25.1317</ele>
        <time>2012-07-18T13:35:13Z</time>
      </trkpt>
      <trkpt lat="59.9738068" lon="17.7228308">
        <ele>25.1317</ele>
        <time>2012-07-18T13:35:16Z</time>
      </trkpt>
      <trkpt lat="59.9737861" lon="17.7227063">
        <ele>27.0543</ele>
        <time>2012-07-18T13:35:21Z</time>
      </trkpt>
      <trkpt lat="59.9737414" lon="17.7225485">
        <ele>27.5349</ele>
        <time>2012-07-18T13:35:28Z</time>
      </trkpt>
      <trkpt lat="59.9737363" lon="17.722453">
        <ele>27.0543</ele>
        <time>2012-07-18T13:35:33Z</time>
      </trkpt>
      <trkpt lat="59.9737125" lon="17.7223796">
        <ele>27.0543</ele>
        <time>2012-07-18T13:35:37Z</time>
      </trkpt>
      <trkpt lat="59.9736803" lon="17.7222381">
        <ele>25.6123</ele>
        <time>2012-07-18T13:35:43Z</time>
      </trkpt>
      <trkpt lat="59.9736128" lon="17.7220676">
        <ele>25.6123</ele>
        <time>2012-07-18T13:35:50Z</time>
      </trkpt>
      <trkpt lat="59.9735466" lon="17.721915">
        <ele>25.6123</ele>
        <time>2012-07-18T13:35:57Z</time>
      </trkpt>
      <trkpt lat="59.9735467" lon="17.7218946">
        <ele>26.0929</ele>
        <time>2012-07-18T13:35:59Z</time>
      </trkpt>
      <trkpt lat="59.9735043" lon="17.7217366">
        <ele>25.6123</ele>
        <time>2012-07-18T13:36:07Z</time>
      </trkpt>
      <trkpt lat="59.9734777" lon="17.7216518">
        <ele>26.0929</ele>
        <time>2012-07-18T13:36:12Z</time>
      </trkpt>
      <trkpt lat="59.9734177" lon="17.7215539">
        <ele>26.5736</ele>
        <time>2012-07-18T13:36:17Z</time>
      </trkpt>
      <trkpt lat="59.9733643" lon="17.721445">
        <ele>26.5736</ele>
        <time>2012-07-18T13:36:23Z</time>
      </trkpt>
      <trkpt lat="59.9732784" lon="17.7212815">
        <ele>26.0929</ele>
        <time>2012-07-18T13:36:31Z</time>
      </trkpt>
      <trkpt lat="59.9732326" lon="17.7211886">
        <ele>26.5736</ele>
        <time>2012-07-18T13:36:36Z</time>
      </trkpt>
      <trkpt lat="59.9731794" lon="17.7210961">
        <ele>27.0543</ele>
        <time>2012-07-18T13:36:42Z</time>
      </trkpt>
      <trkpt lat="59.9731075" lon="17.720981">
        <ele>28.0155</ele>
        <time>2012-07-18T13:36:48Z</time>
      </trkpt>
      <trkpt lat="59.9730694" lon="17.7209312">
        <ele>27.5349</ele>
        <time>2012-07-18T13:36:52Z</time>
      </trkpt>
      <trkpt lat="59.9729898" lon="17.7208405">
        <ele>27.5349</ele>
        <time>2012-07-18T13:36:59Z</time>
      </trkpt>
      <trkpt lat="59.9729322" lon="17.7207773">
        <ele>28.4962</ele>
        <time>2012-07-18T13:37:04Z</time>
      </trkpt>
      <trkpt lat="59.9728494" lon="17.7206785">
        <ele>28.4962</ele>
        <time>2012-07-18T13:37:11Z</time>
      </trkpt>
      <trkpt lat="59.9728211" lon="17.7206479">
        <ele>28.0155</ele>
        <time>2012-07-18T13:37:15Z</time>
      </trkpt>
      <trkpt lat="59.9727712" lon="17.720579">
        <ele>27.5349</ele>
        <time>2012-07-18T13:37:20Z</time>
      </trkpt>
      <trkpt lat="59.9727394" lon="17.7205307">
        <ele>26.0929</ele>
        <time>2012-07-18T13:37:24Z</time>
      </trkpt>
      <trkpt lat="59.9726501" lon="17.7204433">
        <ele>26.0929</ele>
        <time>2012-07-18T13:37:29Z</time>
      </trkpt>
      <trkpt lat="59.972581" lon="17.7203853">
        <ele>25.6123</ele>
        <time>2012-07-18T13:37:34Z</time>
      </trkpt>
      <trkpt lat="59.97252" lon="17.7203371">
        <ele>26.5736</ele>
        <time>2012-07-18T13:37:39Z</time>
      </trkpt>
      <trkpt lat="59.9724723" lon="17.720292">
        <ele>26.5736</ele>
        <time>2012-07-18T13:37:43Z</time>
      </trkpt>
      <trkpt lat="59.9724147" lon="17.7202297">
        <ele>26.0929</ele>
        <time>2012-07-18T13:37:46Z</time>
      </trkpt>
      <trkpt lat="59.9723299" lon="17.7201425">
        <ele>26.0929</ele>
        <time>2012-07-18T13:37:52Z</time>
      </trkpt>
      <trkpt lat="59.9722645" lon="17.7200864">
        <ele>26.5736</ele>
        <time>2012-07-18T13:37:58Z</time>
      </trkpt>
      <trkpt lat="59.9722098" lon="17.7200189">
        <ele>25.6123</ele>
        <time>2012-07-18T13:38:03Z</time>
      </trkpt>
      <trkpt lat="59.9721496" lon="17.7199479">
        <ele>25.6123</ele>
        <time>2012-07-18T13:38:09Z</time>
      </trkpt>
      <trkpt lat="59.972073" lon="17.7198883">
        <ele>25.6123</ele>
        <time>2012-07-18T13:38:16Z</time>
      </trkpt>
      <trkpt lat="59.9720195" lon="17.7198646">
        <ele>26.0929</ele>
        <time>2012-07-18T13:38:22Z</time>
      </trkpt>
      <trkpt lat="59.9719175" lon="17.7197773">
        <ele>25.1317</ele>
        <time>2012-07-18T13:38:28Z</time>
      </trkpt>
      <trkpt lat="59.9718035" lon="17.7196989">
        <ele>25.6123</ele>
        <time>2012-07-18T13:38:35Z</time>
      </trkpt>
      <trkpt lat="59.9717265" lon="17.7196588">
        <ele>26.0929</ele>
        <time>2012-07-18T13:38:41Z</time>
      </trkpt>
      <trkpt lat="59.9716636" lon="17.7195876">
        <ele>25.6123</ele>
        <time>2012-07-18T13:38:47Z</time>
      </trkpt>
      <trkpt lat="59.9716098" lon="17.7195271">
        <ele>25.6123</ele>
        <time>2012-07-18T13:38:53Z</time>
      </trkpt>
      <trkpt lat="59.9715306" lon="17.7194456">
        <ele>24.651</ele>
        <time>2012-07-18T13:39:00Z</time>
      </trkpt>
      <trkpt lat="59.9714493" lon="17.7193735">
        <ele>23.209</ele>
        <time>2012-07-18T13:39:05Z</time>
      </trkpt>
      <trkpt lat="59.9713544" lon="17.719281">
        <ele>23.209</ele>
        <time>2012-07-18T13:39:13Z</time>
      </trkpt>
      <trkpt lat="59.9712923" lon="17.7192181">
        <ele>23.6896</ele>
        <time>2012-07-18T13:39:18Z</time>
      </trkpt>
      <trkpt lat="59.9712624" lon="17.719183">
        <ele>25.1317</ele>
        <time>2012-07-18T13:39:21Z</time>
      </trkpt>
      <trkpt lat="59.9712033" lon="17.7191357">
        <ele>25.1317</ele>
        <time>2012-07-18T13:39:27Z</time>
      </trkpt>
      <trkpt lat="59.9711489" lon="17.7190647">
        <ele>26.0929</ele>
        <time>2012-07-18T13:39:33Z</time>
      </trkpt>
      <trkpt lat="59.9710934" lon="17.7190405">
        <ele>26.0929</ele>
        <time>2012-07-18T13:39:38Z</time>
      </trkpt>
      <trkpt lat="59.9710752" lon="17.7190262">
        <ele>26.0929</ele>
        <time>2012-07-18T13:39:39Z</time>
      </trkpt>
      <trkpt lat="59.9709851" lon="17.718943">
        <ele>26.5736</ele>
        <time>2012-07-18T13:39:45Z</time>
      </trkpt>
      <trkpt lat="59.9709199" lon="17.718857">
        <ele>26.5736</ele>
        <time>2012-07-18T13:39:51Z</time>
      </trkpt>
      <trkpt lat="59.970844" lon="17.7188033">
        <ele>27.0543</ele>
        <time>2012-07-18T13:39:57Z</time>
      </trkpt>
      <trkpt lat="59.970798" lon="17.7187772">
        <ele>26.5736</ele>
        <time>2012-07-18T13:40:02Z</time>
      </trkpt>
      <trkpt lat="59.9707169" lon="17.7187049">
        <ele>25.6123</ele>
        <time>2012-07-18T13:40:08Z</time>
      </trkpt>
      <trkpt lat="59.9706535" lon="17.7186532">
        <ele>25.1317</ele>
        <time>2012-07-18T13:40:14Z</time>
      </trkpt>
      <trkpt lat="59.9705773" lon="17.7186034">
        <ele>25.6123</ele>
        <time>2012-07-18T13:40:19Z</time>
      </trkpt>
      <trkpt lat="59.9704701" lon="17.718492">
        <ele>25.1317</ele>
        <time>2012-07-18T13:40:26Z</time>
      </trkpt>
      <trkpt lat="59.9704224" lon="17.7184328">
        <ele>25.6123</ele>
        <time>2012-07-18T13:40:31Z</time>
      </trkpt>
      <trkpt lat="59.970348" lon="17.7183718">
        <ele>27.0543</ele>
        <time>2012-07-18T13:40:38Z</time>
      </trkpt>
      <trkpt lat="59.9702703" lon="17.7183116">
        <ele>27.5349</ele>
        <time>2012-07-18T13:40:44Z</time>
      </trkpt>
      <trkpt lat="59.9702512" lon="17.7182822">
        <ele>27.0543</ele>
        <time>2012-07-18T13:40:46Z</time>
      </trkpt>
      <trkpt lat="59.9701734" lon="17.7182205">
        <ele>25.6123</ele>
        <time>2012-07-18T13:40:53Z</time>
      </trkpt>
      <trkpt lat="59.9700847" lon="17.7181509">
        <ele>25.1317</ele>
        <time>2012-07-18T13:41:00Z</time>
      </trkpt>
      <trkpt lat="59.9700086" lon="17.718078">
        <ele>24.651</ele>
        <time>2012-07-18T13:41:06Z</time>
      </trkpt>
      <trkpt lat="59.9699517" lon="17.718022">
        <ele>24.1703</ele>
        <time>2012-07-18T13:41:11Z</time>
      </trkpt>
      <trkpt lat="59.9698699" lon="17.7179515">
        <ele>25.1317</ele>
        <time>2012-07-18T13:41:17Z</time>
      </trkpt>
      <trkpt lat="59.9697545" lon="17.717857">
        <ele>26.5736</ele>
        <time>2012-07-18T13:41:26Z</time>
      </trkpt>
      <trkpt lat="59.9696704" lon="17.7177845">
        <ele>25.6123</ele>
        <time>2012-07-18T13:41:33Z</time>
      </trkpt>
      <trkpt lat="59.9695757" lon="17.7177466">
        <ele>27.0543</ele>
        <time>2012-07-18T13:41:40Z</time>
      </trkpt>
      <trkpt lat="59.9694934" lon="17.7176812">
        <ele>26.5736</ele>
        <time>2012-07-18T13:41:47Z</time>
      </trkpt>
      <trkpt lat="59.9694167" lon="17.717644">
        <ele>28.0155</ele>
        <time>2012-07-18T13:41:53Z</time>
      </trkpt>
      <trkpt lat="59.9694004" lon="17.7176403">
        <ele>28.0155</ele>
        <time>2012-07-18T13:41:54Z</time>
      </trkpt>
      <trkpt lat="59.969333" lon="17.717601">
        <ele>28.9769</ele>
        <time>2012-07-18T13:41:59Z</time>
      </trkpt>
      <trkpt lat="59.9692175" lon="17.7175156">
        <ele>27.0543</ele>
        <time>2012-07-18T13:42:07Z</time>
      </trkpt>
      <trkpt lat="59.9691955" lon="17.7174933">
        <ele>26.5736</ele>
        <time>2012-07-18T13:42:09Z</time>
      </trkpt>
      <trkpt lat="59.9690897" lon="17.7174404">
        <ele>26.0929</ele>
        <time>2012-07-18T13:42:16Z</time>
      </trkpt>
      <trkpt lat="59.9690778" lon="17.717432">
        <ele>26.0929</ele>
        <time>2012-07-18T13:42:17Z</time>
      </trkpt>
      <trkpt lat="59.9690439" lon="17.7174558">
        <ele>27.0543</ele>
        <time>2012-07-18T13:42:22Z</time>
      </trkpt>
      <trkpt lat="59.9689235" lon="17.7174648">
        <ele>27.5349</ele>
        <time>2012-07-18T13:42:29Z</time>
      </trkpt>
      <trkpt lat="59.9688168" lon="17.7174947">
        <ele>26.5736</ele>
        <time>2012-07-18T13:42:36Z</time>
      </trkpt>
      <trkpt lat="59.9687441" lon="17.7175129">
        <ele>27.0543</ele>
        <time>2012-07-18T13:42:41Z</time>
      </trkpt>
      <trkpt lat="59.9687229" lon="17.717501">
        <ele>28.0155</ele>
        <time>2012-07-18T13:42:44Z</time>
      </trkpt>
      <trkpt lat="59.9686604" lon="17.717486">
        <ele>28.4962</ele>
        <time>2012-07-18T13:42:48Z</time>
      </trkpt>
      <trkpt lat="59.9686086" lon="17.7174471">
        <ele>30.4188</ele>
        <time>2012-07-18T13:42:53Z</time>
      </trkpt>
      <trkpt lat="59.9685862" lon="17.7174502">
        <ele>29.9381</ele>
        <time>2012-07-18T13:42:57Z</time>
      </trkpt>
      <trkpt lat="59.9685116" lon="17.7174252">
        <ele>29.9381</ele>
        <time>2012-07-18T13:43:02Z</time>
      </trkpt>
      <trkpt lat="59.9684195" lon="17.7173604">
        <ele>31.8607</ele>
        <time>2012-07-18T13:43:08Z</time>
      </trkpt>
      <trkpt lat="59.9683183" lon="17.717275">
        <ele>30.8995</ele>
        <time>2012-07-18T13:43:15Z</time>
      </trkpt>
      <trkpt lat="59.9682185" lon="17.717185">
        <ele>29.4575</ele>
        <time>2012-07-18T13:43:22Z</time>
      </trkpt>
      <trkpt lat="59.9681493" lon="17.7171061">
        <ele>28.4962</ele>
        <time>2012-07-18T13:43:28Z</time>
      </trkpt>
      <trkpt lat="59.968025" lon="17.716953">
        <ele>28.0155</ele>
        <time>2012-07-18T13:43:36Z</time>
      </trkpt>
      <trkpt lat="59.9679579" lon="17.7168509">
        <ele>27.5349</ele>
        <time>2012-07-18T13:43:41Z</time>
      </trkpt>
      <trkpt lat="59.9678838" lon="17.7167213">
        <ele>28.0155</ele>
        <time>2012-07-18T13:43:48Z</time>
      </trkpt>
      <trkpt lat="59.9677879" lon="17.716571">
        <ele>27.5349</ele>
        <time>2012-07-18T13:43:54Z</time>
      </trkpt>
      <trkpt lat="59.9677098" lon="17.7163972">
        <ele>25.1317</ele>
        <time>2012-07-18T13:44:02Z</time>
      </trkpt>
      <trkpt lat="59.9676723" lon="17.7162209">
        <ele>20.8057</ele>
        <time>2012-07-18T13:44:11Z</time>
      </trkpt>
      <trkpt lat="59.9676212" lon="17.7160889">
        <ele>19.3638</ele>
        <time>2012-07-18T13:44:17Z</time>
      </trkpt>
      <trkpt lat="59.9675358" lon="17.71589">
        <ele>20.8057</ele>
        <time>2012-07-18T13:44:24Z</time>
      </trkpt>
      <trkpt lat="59.9674565" lon="17.7156751">
        <ele>23.209</ele>
        <time>2012-07-18T13:44:31Z</time>
      </trkpt>
      <trkpt lat="59.9673994" lon="17.7154108">
        <ele>28.4962</ele>
        <time>2012-07-18T13:44:38Z</time>
      </trkpt>
      <trkpt lat="59.9673835" lon="17.7152865">
        <ele>29.4575</ele>
        <time>2012-07-18T13:44:42Z</time>
      </trkpt>
      <trkpt lat="59.9673864" lon="17.7152436">
        <ele>31.3801</ele>
        <time>2012-07-18T13:44:46Z</time>
      </trkpt>
      <trkpt lat="59.9673746" lon="17.7151351">
        <ele>28.4962</ele>
        <time>2012-07-18T13:44:51Z</time>
      </trkpt>
      <trkpt lat="59.9673827" lon="17.7150209">
        <ele>24.651</ele>
        <time>2012-07-18T13:44:54Z</time>
      </trkpt>
      <trkpt lat="59.967355" lon="17.7148566">
        <ele>26.0929</ele>
        <time>2012-07-18T13:44:59Z</time>
      </trkpt>
      <trkpt lat="59.9673154" lon="17.7146618">
        <ele>28.9769</ele>
        <time>2012-07-18T13:45:04Z</time>
      </trkpt>
      <trkpt lat="59.9672948" lon="17.7144302">
        <ele>26.0929</ele>
        <time>2012-07-18T13:45:13Z</time>
      </trkpt>
      <trkpt lat="59.9672623" lon="17.7142718">
        <ele>24.651</ele>
        <time>2012-07-18T13:45:19Z</time>
      </trkpt>
      <trkpt lat="59.9672361" lon="17.7141118">
        <ele>24.651</ele>
        <time>2012-07-18T13:45:25Z</time>
      </trkpt>
      <trkpt lat="59.9672114" lon="17.7138998">
        <ele>23.6896</ele>
        <time>2012-07-18T13:45:33Z</time>
      </trkpt>
      <trkpt lat="59.9671989" lon="17.7137157">
        <ele>25.1317</ele>
        <time>2012-07-18T13:45:40Z</time>
      </trkpt>
      <trkpt lat="59.9671757" lon="17.7135311">
        <ele>25.6123</ele>
        <time>2012-07-18T13:45:47Z</time>
      </trkpt>
      <trkpt lat="59.9671255" lon="17.7132735">
        <ele>24.1703</ele>
        <time>2012-07-18T13:45:57Z</time>
      </trkpt>
      <trkpt lat="59.9670742" lon="17.7130269">
        <ele>24.651</ele>
        <time>2012-07-18T13:46:06Z</time>
      </trkpt>
      <trkpt lat="59.9670253" lon="17.7127882">
        <ele>25.1317</ele>
        <time>2012-07-18T13:46:15Z</time>
      </trkpt>
      <trkpt lat="59.966983" lon="17.7125746">
        <ele>25.1317</ele>
        <time>2012-07-18T13:46:23Z</time>
      </trkpt>
      <trkpt lat="59.9669059" lon="17.7122847">
        <ele>25.6123</ele>
        <time>2012-07-18T13:46:34Z</time>
      </trkpt>
      <trkpt lat="59.966855" lon="17.7121624">
        <ele>25.6123</ele>
        <time>2012-07-18T13:46:39Z</time>
      </trkpt>
      <trkpt lat="59.9667779" lon="17.7119393">
        <ele>25.6123</ele>
        <time>2012-07-18T13:46:48Z</time>
      </trkpt>
      <trkpt lat="59.9667049" lon="17.711787">
        <ele>25.6123</ele>
        <time>2012-07-18T13:46:55Z</time>
      </trkpt>
      <trkpt lat="59.96661" lon="17.7118097">
        <ele>26.5736</ele>
        <time>2012-07-18T13:47:01Z</time>
      </trkpt>
      <trkpt lat="59.9665995" lon="17.7118262">
        <ele>26.5736</ele>
        <time>2012-07-18T13:47:02Z</time>
      </trkpt>
      <trkpt lat="59.9665112" lon="17.7119519">
        <ele>26.0929</ele>
        <time>2012-07-18T13:47:09Z</time>
      </trkpt>
      <trkpt lat="59.9664889" lon="17.7119965">
        <ele>25.6123</ele>
        <time>2012-07-18T13:47:11Z</time>
      </trkpt>
      <trkpt lat="59.9664123" lon="17.7121293">
        <ele>25.6123</ele>
        <time>2012-07-18T13:47:18Z</time>
      </trkpt>
      <trkpt lat="59.9663209" lon="17.7122332">
        <ele>25.6123</ele>
        <time>2012-07-18T13:47:25Z</time>
      </trkpt>
      <trkpt lat="59.9662525" lon="17.7123277">
        <ele>26.0929</ele>
        <time>2012-07-18T13:47:29Z</time>
      </trkpt>
      <trkpt lat="59.9661322" lon="17.7124914">
        <ele>24.1703</ele>
        <time>2012-07-18T13:47:39Z</time>
      </trkpt>
      <trkpt lat="59.9660557" lon="17.7126307">
        <ele>27.0543</ele>
        <time>2012-07-18T13:47:46Z</time>
      </trkpt>
      <trkpt lat="59.9659707" lon="17.7126395">
        <ele>28.4962</ele>
        <time>2012-07-18T13:47:53Z</time>
      </trkpt>
      <trkpt lat="59.9658434" lon="17.712586">
        <ele>28.4962</ele>
        <time>2012-07-18T13:48:01Z</time>
      </trkpt>
      <trkpt lat="59.9657111" lon="17.7124842">
        <ele>28.9769</ele>
        <time>2012-07-18T13:48:09Z</time>
      </trkpt>
      <trkpt lat="59.9656323" lon="17.7124022">
        <ele>28.4962</ele>
        <time>2012-07-18T13:48:15Z</time>
      </trkpt>
      <trkpt lat="59.9655379" lon="17.7123167">
        <ele>27.0543</ele>
        <time>2012-07-18T13:48:22Z</time>
      </trkpt>
      <trkpt lat="59.9654272" lon="17.7122043">
        <ele>25.6123</ele>
        <time>2012-07-18T13:48:29Z</time>
      </trkpt>
      <trkpt lat="59.9653433" lon="17.7121355">
        <ele>25.1317</ele>
        <time>2012-07-18T13:48:36Z</time>
      </trkpt>
      <trkpt lat="59.965257" lon="17.7120576">
        <ele>27.5349</ele>
        <time>2012-07-18T13:48:43Z</time>
      </trkpt>
      <trkpt lat="59.9651384" lon="17.7119631">
        <ele>28.4962</ele>
        <time>2012-07-18T13:48:50Z</time>
      </trkpt>
      <trkpt lat="59.965025" lon="17.7119127">
        <ele>30.8995</ele>
        <time>2012-07-18T13:48:57Z</time>
      </trkpt>
      <trkpt lat="59.9650175" lon="17.7118889">
        <ele>30.4188</ele>
        <time>2012-07-18T13:48:59Z</time>
      </trkpt>
      <trkpt lat="59.965198" lon="17.7121485">
        <ele>34.2642</ele>
        <time>2012-07-18T13:52:13Z</time>
      </trkpt>
      <trkpt lat="59.9651228" lon="17.7120012">
        <ele>24.1703</ele>
        <time>2012-07-18T13:52:19Z</time>
      </trkpt>
      <trkpt lat="59.9650689" lon="17.7119428">
        <ele>22.7283</ele>
        <time>2012-07-18T13:52:23Z</time>
      </trkpt>
      <trkpt lat="59.9649835" lon="17.7118557">
        <ele>24.651</ele>
        <time>2012-07-18T13:52:30Z</time>
      </trkpt>
      <trkpt lat="59.9649149" lon="17.7118051">
        <ele>25.6123</ele>
        <time>2012-07-18T13:52:36Z</time>
      </trkpt>
      <trkpt lat="59.9648178" lon="17.7116955">
        <ele>24.651</ele>
        <time>2012-07-18T13:52:43Z</time>
      </trkpt>
      <trkpt lat="59.9647005" lon="17.7116107">
        <ele>25.6123</ele>
        <time>2012-07-18T13:52:50Z</time>
      </trkpt>
      <trkpt lat="59.9646049" lon="17.7115214">
        <ele>25.1317</ele>
        <time>2012-07-18T13:52:57Z</time>
      </trkpt>
      <trkpt lat="59.9645021" lon="17.7114368">
        <ele>24.1703</ele>
        <time>2012-07-18T13:53:04Z</time>
      </trkpt>
      <trkpt lat="59.964406" lon="17.7113484">
        <ele>24.651</ele>
        <time>2012-07-18T13:53:11Z</time>
      </trkpt>
      <trkpt lat="59.9643102" lon="17.711251">
        <ele>25.6123</ele>
        <time>2012-07-18T13:53:19Z</time>
      </trkpt>
      <trkpt lat="59.9642114" lon="17.7111488">
        <ele>25.1317</ele>
        <time>2012-07-18T13:53:26Z</time>
      </trkpt>
      <trkpt lat="59.9641188" lon="17.7110404">
        <ele>22.7283</ele>
        <time>2012-07-18T13:53:32Z</time>
      </trkpt>
      <trkpt lat="59.9641027" lon="17.7110186">
        <ele>22.2476</ele>
        <time>2012-07-18T13:53:33Z</time>
      </trkpt>
      <trkpt lat="59.9640184" lon="17.7108589">
        <ele>22.2476</ele>
        <time>2012-07-18T13:53:40Z</time>
      </trkpt>
      <trkpt lat="59.9639529" lon="17.7107252">
        <ele>23.209</ele>
        <time>2012-07-18T13:53:46Z</time>
      </trkpt>
      <trkpt lat="59.9638843" lon="17.7105514">
        <ele>21.767</ele>
        <time>2012-07-18T13:53:54Z</time>
      </trkpt>
      <trkpt lat="59.9638402" lon="17.7104311">
        <ele>21.2864</ele>
        <time>2012-07-18T13:53:59Z</time>
      </trkpt>
      <trkpt lat="59.9637755" lon="17.7102971">
        <ele>20.325</ele>
        <time>2012-07-18T13:54:05Z</time>
      </trkpt>
      <trkpt lat="59.9637245" lon="17.7102049">
        <ele>19.3638</ele>
        <time>2012-07-18T13:54:09Z</time>
      </trkpt>
      <trkpt lat="59.9636206" lon="17.7102499">
        <ele>23.6896</ele>
        <time>2012-07-18T13:54:16Z</time>
      </trkpt>
      <trkpt lat="59.9635199" lon="17.710396">
        <ele>24.651</ele>
        <time>2012-07-18T13:54:24Z</time>
      </trkpt>
      <trkpt lat="59.9634305" lon="17.7105448">
        <ele>23.6896</ele>
        <time>2012-07-18T13:54:32Z</time>
      </trkpt>
      <trkpt lat="59.9633896" lon="17.710789">
        <ele>25.1317</ele>
        <time>2012-07-18T13:54:39Z</time>
      </trkpt>
      <trkpt lat="59.9634186" lon="17.711025">
        <ele>25.6123</ele>
        <time>2012-07-18T13:54:46Z</time>
      </trkpt>
      <trkpt lat="59.9634904" lon="17.7111735">
        <ele>26.5736</ele>
        <time>2012-07-18T13:54:52Z</time>
      </trkpt>
      <trkpt lat="59.9635513" lon="17.7112622">
        <ele>25.1317</ele>
        <time>2012-07-18T13:54:57Z</time>
      </trkpt>
      <trkpt lat="59.9635983" lon="17.7113282">
        <ele>23.209</ele>
        <time>2012-07-18T13:55:01Z</time>
      </trkpt>
      <trkpt lat="59.9636537" lon="17.7115121">
        <ele>21.767</ele>
        <time>2012-07-18T13:55:08Z</time>
      </trkpt>
      <trkpt lat="59.9636754" lon="17.71166">
        <ele>20.325</ele>
        <time>2012-07-18T13:55:13Z</time>
      </trkpt>
      <trkpt lat="59.9636368" lon="17.7118164">
        <ele>15.5184</ele>
        <time>2012-07-18T13:55:19Z</time>
      </trkpt>
      <trkpt lat="59.9636329" lon="17.711978">
        <ele>18.4023</ele>
        <time>2012-07-18T13:55:23Z</time>
      </trkpt>
      <trkpt lat="59.9636592" lon="17.7121588">
        <ele>21.767</ele>
        <time>2012-07-18T13:55:28Z</time>
      </trkpt>
      <trkpt lat="59.9636776" lon="17.7123292">
        <ele>23.209</ele>
        <time>2012-07-18T13:55:34Z</time>
      </trkpt>
      <trkpt lat="59.9637216" lon="17.712481">
        <ele>26.5736</ele>
        <time>2012-07-18T13:55:40Z</time>
      </trkpt>
      <trkpt lat="59.9637395" lon="17.7126007">
        <ele>27.5349</ele>
        <time>2012-07-18T13:55:45Z</time>
      </trkpt>
      <trkpt lat="59.9636677" lon="17.7127183">
        <ele>31.3801</ele>
        <time>2012-07-18T13:55:50Z</time>
      </trkpt>
      <trkpt lat="59.9636543" lon="17.7127239">
        <ele>31.8607</ele>
        <time>2012-07-18T13:55:51Z</time>
      </trkpt>
      <trkpt lat="59.963592" lon="17.7126782">
        <ele>31.3801</ele>
        <time>2012-07-18T13:55:57Z</time>
      </trkpt>
      <trkpt lat="59.9635225" lon="17.712595">
        <ele>30.4188</ele>
        <time>2012-07-18T13:56:03Z</time>
      </trkpt>
      <trkpt lat="59.9635018" lon="17.7125743">
        <ele>29.9381</ele>
        <time>2012-07-18T13:56:04Z</time>
      </trkpt>
      <trkpt lat="59.9633818" lon="17.712525">
        <ele>29.9381</ele>
        <time>2012-07-18T13:56:12Z</time>
      </trkpt>
      <trkpt lat="59.9632631" lon="17.7125633">
        <ele>32.8223</ele>
        <time>2012-07-18T13:56:20Z</time>
      </trkpt>
      <trkpt lat="59.9631649" lon="17.7126736">
        <ele>36.1868</ele>
        <time>2012-07-18T13:56:27Z</time>
      </trkpt>
      <trkpt lat="59.9630828" lon="17.7128168">
        <ele>40.9934</ele>
        <time>2012-07-18T13:56:34Z</time>
      </trkpt>
      <trkpt lat="59.9630648" lon="17.7128653">
        <ele>42.4354</ele>
        <time>2012-07-18T13:56:36Z</time>
      </trkpt>
      <trkpt lat="59.9629933" lon="17.7129348">
        <ele>46.2806</ele>
        <time>2012-07-18T13:56:42Z</time>
      </trkpt>
      <trkpt lat="59.9628734" lon="17.7130718">
        <ele>48.2034</ele>
        <time>2012-07-18T13:56:51Z</time>
      </trkpt>
      <trkpt lat="59.9628172" lon="17.7131123">
        <ele>44.358</ele>
        <time>2012-07-18T13:56:56Z</time>
      </trkpt>
      <trkpt lat="59.9627125" lon="17.7132617">
        <ele>40.9934</ele>
        <time>2012-07-18T13:57:04Z</time>
      </trkpt>
      <trkpt lat="59.9626136" lon="17.713335">
        <ele>36.6675</ele>
        <time>2012-07-18T13:57:12Z</time>
      </trkpt>
      <trkpt lat="59.9625409" lon="17.7134075">
        <ele>36.6675</ele>
        <time>2012-07-18T13:57:17Z</time>
      </trkpt>
      <trkpt lat="59.9624376" lon="17.7135371">
        <ele>37.6287</ele>
        <time>2012-07-18T13:57:24Z</time>
      </trkpt>
      <trkpt lat="59.9623581" lon="17.7136124">
        <ele>36.6675</ele>
        <time>2012-07-18T13:57:29Z</time>
      </trkpt>
      <trkpt lat="59.9623126" lon="17.7137356">
        <ele>37.6287</ele>
        <time>2012-07-18T13:57:33Z</time>
      </trkpt>
      <trkpt lat="59.9622811" lon="17.7138491">
        <ele>37.1481</ele>
        <time>2012-07-18T13:57:37Z</time>
      </trkpt>
      <trkpt lat="59.9622763" lon="17.7139593">
        <ele>37.1481</ele>
        <time>2012-07-18T13:57:41Z</time>
      </trkpt>
      <trkpt lat="59.9622478" lon="17.7140733">
        <ele>37.1481</ele>
        <time>2012-07-18T13:57:46Z</time>
      </trkpt>
      <trkpt lat="59.9622348" lon="17.7142728">
        <ele>35.2255</ele>
        <time>2012-07-18T13:57:53Z</time>
      </trkpt>
      <trkpt lat="59.9621966" lon="17.714393">
        <ele>37.1481</ele>
        <time>2012-07-18T13:57:58Z</time>
      </trkpt>
      <trkpt lat="59.9621534" lon="17.7144694">
        <ele>39.0707</ele>
        <time>2012-07-18T13:58:02Z</time>
      </trkpt>
      <trkpt lat="59.9621138" lon="17.7144961">
        <ele>40.0321</ele>
        <time>2012-07-18T13:58:05Z</time>
      </trkpt>
      <trkpt lat="59.9620356" lon="17.7146163">
        <ele>44.8386</ele>
        <time>2012-07-18T13:58:12Z</time>
      </trkpt>
      <trkpt lat="59.9619526" lon="17.7147406">
        <ele>47.2418</ele>
        <time>2012-07-18T13:58:19Z</time>
      </trkpt>
      <trkpt lat="59.9619313" lon="17.7147721">
        <ele>48.2034</ele>
        <time>2012-07-18T13:58:21Z</time>
      </trkpt>
      <trkpt lat="59.9618754" lon="17.7148776">
        <ele>52.0486</ele>
        <time>2012-07-18T13:58:27Z</time>
      </trkpt>
      <trkpt lat="59.9618307" lon="17.7148926">
        <ele>51.0872</ele>
        <time>2012-07-18T13:58:32Z</time>
      </trkpt>
      <trkpt lat="59.9617828" lon="17.7149146">
        <ele>49.6453</ele>
        <time>2012-07-18T13:58:36Z</time>
      </trkpt>
      <trkpt lat="59.9617297" lon="17.7149628">
        <ele>47.2418</ele>
        <time>2012-07-18T13:58:40Z</time>
      </trkpt>
      <trkpt lat="59.9616489" lon="17.7149861">
        <ele>42.916</ele>
        <time>2012-07-18T13:58:46Z</time>
      </trkpt>
      <trkpt lat="59.9615589" lon="17.7150782">
        <ele>37.6287</ele>
        <time>2012-07-18T13:58:51Z</time>
      </trkpt>
      <trkpt lat="59.961482" lon="17.7151345">
        <ele>33.3029</ele>
        <time>2012-07-18T13:58:55Z</time>
      </trkpt>
      <trkpt lat="59.96141" lon="17.7152217">
        <ele>33.7834</ele>
        <time>2012-07-18T13:59:01Z</time>
      </trkpt>
      <trkpt lat="59.9613367" lon="17.7153181">
        <ele>35.7061</ele>
        <time>2012-07-18T13:59:07Z</time>
      </trkpt>
      <trkpt lat="59.9613301" lon="17.7153342">
        <ele>35.7061</ele>
        <time>2012-07-18T13:59:08Z</time>
      </trkpt>
      <trkpt lat="59.9613086" lon="17.7154175">
        <ele>35.2255</ele>
        <time>2012-07-18T13:59:12Z</time>
      </trkpt>
      <trkpt lat="59.9612371" lon="17.7155065">
        <ele>38.1094</ele>
        <time>2012-07-18T13:59:18Z</time>
      </trkpt>
      <trkpt lat="59.9612171" lon="17.7155678">
        <ele>36.6675</ele>
        <time>2012-07-18T13:59:20Z</time>
      </trkpt>
      <trkpt lat="59.9611667" lon="17.7156769">
        <ele>34.7449</ele>
        <time>2012-07-18T13:59:25Z</time>
      </trkpt>
      <trkpt lat="59.961119" lon="17.7158304">
        <ele>34.2642</ele>
        <time>2012-07-18T13:59:31Z</time>
      </trkpt>
      <trkpt lat="59.9610725" lon="17.7159522">
        <ele>32.3416</ele>
        <time>2012-07-18T13:59:36Z</time>
      </trkpt>
      <trkpt lat="59.9610631" lon="17.7159822">
        <ele>32.8223</ele>
        <time>2012-07-18T13:59:37Z</time>
      </trkpt>
      <trkpt lat="59.9610246" lon="17.7160745">
        <ele>33.3029</ele>
        <time>2012-07-18T13:59:41Z</time>
      </trkpt>
      <trkpt lat="59.9609747" lon="17.7162068">
        <ele>34.2642</ele>
        <time>2012-07-18T13:59:46Z</time>
      </trkpt>
      <trkpt lat="59.960913" lon="17.7163717">
        <ele>38.1094</ele>
        <time>2012-07-18T13:59:53Z</time>
      </trkpt>
      <trkpt lat="59.9608796" lon="17.7164832">
        <ele>40.9934</ele>
        <time>2012-07-18T13:59:57Z</time>
      </trkpt>
      <trkpt lat="59.9608485" lon="17.7166495">
        <ele>42.916</ele>
        <time>2012-07-18T14:00:03Z</time>
      </trkpt>
      <trkpt lat="59.9608164" lon="17.7167212">
        <ele>42.4354</ele>
        <time>2012-07-18T14:00:07Z</time>
      </trkpt>
      <trkpt lat="59.9608" lon="17.7167481">
        <ele>40.0321</ele>
        <time>2012-07-18T14:00:10Z</time>
      </trkpt>
      <trkpt lat="59.9607788" lon="17.7167598">
        <ele>38.5901</ele>
        <time>2012-07-18T14:00:12Z</time>
      </trkpt>
      <trkpt lat="59.9607089" lon="17.7168551">
        <ele>31.8607</ele>
        <time>2012-07-18T14:00:19Z</time>
      </trkpt>
      <trkpt lat="59.9606633" lon="17.7168836">
        <ele>28.9769</ele>
        <time>2012-07-18T14:00:23Z</time>
      </trkpt>
      <trkpt lat="59.9606181" lon="17.7169206">
        <ele>24.651</ele>
        <time>2012-07-18T14:00:27Z</time>
      </trkpt>
      <trkpt lat="59.9605567" lon="17.7171647">
        <ele>34.2642</ele>
        <time>2012-07-18T14:00:33Z</time>
      </trkpt>
      <trkpt lat="59.9604892" lon="17.7173493">
        <ele>40.9934</ele>
        <time>2012-07-18T14:00:40Z</time>
      </trkpt>
      <trkpt lat="59.9604303" lon="17.7174865">
        <ele>41.474</ele>
        <time>2012-07-18T14:00:46Z</time>
      </trkpt>
      <trkpt lat="59.9604219" lon="17.7174957">
        <ele>40.5128</ele>
        <time>2012-07-18T14:00:47Z</time>
      </trkpt>
      <trkpt lat="59.9604032" lon="17.7175361">
        <ele>38.5901</ele>
        <time>2012-07-18T14:00:49Z</time>
      </trkpt>
      <trkpt lat="59.9603699" lon="17.717723">
        <ele>37.6287</ele>
        <time>2012-07-18T14:00:56Z</time>
      </trkpt>
      <trkpt lat="59.9603658" lon="17.7178389">
        <ele>37.1481</ele>
        <time>2012-07-18T14:01:00Z</time>
      </trkpt>
      <trkpt lat="59.9603747" lon="17.7178883">
        <ele>37.1481</ele>
        <time>2012-07-18T14:01:02Z</time>
      </trkpt>
      <trkpt lat="59.9604831" lon="17.718052">
        <ele>41.9547</ele>
        <time>2012-07-18T14:01:10Z</time>
      </trkpt>
      <trkpt lat="59.9605662" lon="17.7181448">
        <ele>44.8386</ele>
        <time>2012-07-18T14:01:15Z</time>
      </trkpt>
      <trkpt lat="59.9606576" lon="17.7182155">
        <ele>45.7999</ele>
        <time>2012-07-18T14:01:21Z</time>
      </trkpt>
      <trkpt lat="59.9607321" lon="17.7182987">
        <ele>46.7612</ele>
        <time>2012-07-18T14:01:26Z</time>
      </trkpt>
      <trkpt lat="59.9608161" lon="17.7183498">
        <ele>48.684</ele>
        <time>2012-07-18T14:01:31Z</time>
      </trkpt>
      <trkpt lat="59.9608896" lon="17.7184139">
        <ele>50.6066</ele>
        <time>2012-07-18T14:01:36Z</time>
      </trkpt>
      <trkpt lat="59.9609632" lon="17.7184712">
        <ele>52.0486</ele>
        <time>2012-07-18T14:01:41Z</time>
      </trkpt>
      <trkpt lat="59.9609844" lon="17.7184975">
        <ele>51.0872</ele>
        <time>2012-07-18T14:01:43Z</time>
      </trkpt>
      <trkpt lat="59.9610331" lon="17.7185272">
        <ele>51.5679</ele>
        <time>2012-07-18T14:01:47Z</time>
      </trkpt>
      <trkpt lat="59.9610954" lon="17.7184134">
        <ele>48.2034</ele>
        <time>2012-07-18T14:01:54Z</time>
      </trkpt>
      <trkpt lat="59.9611277" lon="17.7182656">
        <ele>45.7999</ele>
        <time>2012-07-18T14:02:00Z</time>
      </trkpt>
      <trkpt lat="59.9611578" lon="17.7180879">
        <ele>43.3966</ele>
        <time>2012-07-18T14:02:07Z</time>
      </trkpt>
      <trkpt lat="59.9611912" lon="17.71799">
        <ele>43.8773</ele>
        <time>2012-07-18T14:02:13Z</time>
      </trkpt>
      <trkpt lat="59.9611866" lon="17.7180083">
        <ele>42.916</ele>
        <time>2012-07-18T14:02:21Z</time>
      </trkpt>
    </trkseg>
  </trk>
</gpx>